Time;durP1;ratioP1;P1;durP2;ratioP2;P2;SDS_P1;SDS_P2;PMS_P1;PMS_P2;Temp;Humidity;BMP_temperature;BMP_pressure;BME280_temperature;BME280_humidity;BME280_pressure;Samples;Min_cycle;Max_cycle;Signal;HPM_P1;HPM_P2
2022/09/13 00:00:19;;;;;;;13.93;9.43;;;20.40;68.00;;;;;;5053476;28;20065;-73
2022/09/13 00:02:45;;;;;;;14.50;9.57;;;20.40;68.00;;;;;;5054869;28;20045;-73
2022/09/13 00:05:12;;;;;;;14.23;9.13;;;20.40;68.00;;;;;;5053994;28;20061;-73
2022/09/13 00:07:39;;;;;;;14.23;9.40;;;20.40;68.10;;;;;;5053745;28;20045;-73
2022/09/13 00:10:06;;;;;;;14.02;9.00;;;20.40;68.00;;;;;;5053530;28;20049;-72
2022/09/13 00:12:34;;;;;;;13.82;9.15;;;20.40;68.00;;;;;;5070232;28;20664;-73
2022/09/13 00:15:01;;;;;;;15.40;9.13;;;20.40;68.00;;;;;;5053551;28;20049;-73
2022/09/13 00:17:27;;;;;;;12.52;8.70;;;20.40;68.00;;;;;;5053268;28;20065;-73
2022/09/13 00:19:54;;;;;;;12.45;8.77;;;20.40;68.00;;;;;;5053685;28;20057;-73
2022/09/13 00:22:21;;;;;;;14.77;8.80;;;20.40;68.00;;;;;;5053740;28;20056;-73
2022/09/13 00:24:47;;;;;;;12.50;8.70;;;20.40;68.00;;;;;;5054722;28;20048;-72
2022/09/13 00:27:14;;;;;;;12.88;8.75;;;20.40;67.90;;;;;;5053674;28;20055;-73
2022/09/13 00:29:42;;;;;;;14.05;8.70;;;20.40;67.90;;;;;;5053097;28;20049;-73
2022/09/13 00:32:09;;;;;;;12.68;8.18;;;20.40;67.90;;;;;;5053021;28;20051;-73
2022/09/13 00:34:36;;;;;;;11.07;8.13;;;20.40;67.90;;;;;;5053297;28;20049;-71
2022/09/13 00:37:02;;;;;;;14.60;8.55;;;21.40;70.20;;;;;;5054315;28;20490;-73
2022/09/13 00:39:29;;;;;;;11.25;7.47;;;20.40;67.90;;;;;;5054110;28;20055;-73
2022/09/13 00:41:56;;;;;;;11.18;8.40;;;20.40;67.90;;;;;;5054029;28;20379;-72
2022/09/13 00:44:47;;;;;;;11.82;8.43;;;20.40;67.90;;;;;;5054112;28;20045;-73
2022/09/13 00:47:14;;;;;;;11.80;8.43;;;20.40;67.80;;;;;;5051780;28;20057;-73
2022/09/13 00:49:41;;;;;;;11.45;8.13;;;20.40;67.90;;;;;;5053227;28;20387;-72
2022/09/13 00:52:09;;;;;;;10.98;7.68;;;20.40;67.90;;;;;;5052618;28;20057;-73
2022/09/13 00:54:39;;;;;;;13.60;8.55;;;20.40;67.90;;;;;;5052680;28;20053;-71
2022/09/13 00:57:06;;;;;;;12.05;7.80;;;20.40;67.90;;;;;;5053027;28;20059;-73
2022/09/13 00:59:34;;;;;;;12.20;8.48;;;20.40;67.90;;;;;;5036124;28;20060;-71
2022/09/13 01:02:02;;;;;;;11.00;7.97;;;20.40;67.90;;;;;;5048186;28;20048;-73
2022/09/13 01:04:29;;;;;;;11.10;7.68;;;20.40;67.90;;;;;;5052923;28;20077;-73
2022/09/13 01:06:58;;;;;;;10.93;7.72;;;20.40;67.90;;;;;;5052479;28;20059;-73
2022/09/13 01:09:24;;;;;;;10.10;7.47;;;20.30;67.80;;;;;;5052693;28;20064;-73
2022/09/13 01:11:54;;;;;;;12.25;7.78;;;20.30;67.80;;;;;;5052211;28;20057;-73
2022/09/13 01:14:21;;;;;;;11.98;7.80;;;20.40;67.90;;;;;;5052018;28;20068;-72
2022/09/13 01:16:47;;;;;;;11.13;7.78;;;20.40;67.80;;;;;;5052533;28;20503;-73
2022/09/13 01:19:16;;;;;;;11.10;7.55;;;20.30;67.80;;;;;;5052797;28;20057;-73
2022/09/13 01:22:15;;;;;;;9.77;7.30;;;20.30;67.80;;;;;;5052958;28;20045;-73
2022/09/13 01:25:36;;;;;;;8.63;6.82;;;20.30;67.70;;;;;;5048843;28;20045;-73
2022/09/13 01:28:41;;;;;;;9.65;7.35;;;20.30;67.70;;;;;;4948587;28;20055;-73
2022/09/13 01:31:11;;;;;;;10.30;7.28;;;20.30;67.70;;;;;;4924069;28;20061;-73
2022/09/13 01:33:43;;;;;;;9.40;7.38;;;20.30;67.80;;;;;;5020346;28;20049;-73
2022/09/13 01:36:31;;;;;;;9.95;6.90;;;20.30;67.80;;;;;;5050058;28;20059;-73
2022/09/13 01:38:59;;;;;;;8.95;6.70;;;20.30;67.70;;;;;;5067787;28;20049;-73
2022/09/13 01:41:43;;;;;;;9.98;7.32;;;20.30;67.80;;;;;;5051898;28;20056;-72
2022/09/13 01:44:14;;;;;;;8.85;6.68;;;20.30;67.70;;;;;;5052080;28;20055;-73
2022/09/13 01:46:46;;;;;;;9.60;6.80;;;20.30;67.80;;;;;;5052226;28;20409;-73
2022/09/13 01:49:15;;;;;;;9.77;6.85;;;20.30;67.80;;;;;;5052319;28;20175;-73
2022/09/13 01:51:44;;;;;;;8.88;6.53;;;20.30;67.80;;;;;;5050567;28;20053;-73
2022/09/13 01:54:16;;;;;;;9.77;6.55;;;20.30;67.80;;;;;;5052737;28;20071;-73
2022/09/13 01:56:49;;;;;;;8.38;6.43;;;20.30;67.70;;;;;;5053054;28;20440;-73
2022/09/13 01:59:18;;;;;;;10.32;6.32;;;20.30;67.80;;;;;;5051737;28;20059;-73
2022/09/13 02:01:49;;;;;;;8.73;6.85;;;20.30;67.80;;;;;;5051665;28;20485;-73
2022/09/13 02:04:17;;;;;;;8.45;6.20;;;20.30;67.80;;;;;;5051608;28;20128;-73
2022/09/13 02:06:46;;;;;;;8.65;6.72;;;20.30;67.80;;;;;;5051173;28;20064;-73
2022/09/13 02:09:15;;;;;;;7.43;5.57;;;20.30;67.80;;;;;;5052915;28;20055;-73
2022/09/13 02:11:42;;;;;;;8.15;6.30;;;20.30;67.70;;;;;;5051384;28;20482;-73
2022/09/13 02:14:12;;;;;;;8.20;5.90;;;20.30;67.70;;;;;;5050303;28;20045;-73
2022/09/13 02:16:41;;;;;;;9.68;6.18;;;20.30;67.70;;;;;;5051187;28;20087;-71
2022/09/13 02:19:12;;;;;;;7.97;6.63;;;20.30;67.70;;;;;;5051245;28;20063;-73
2022/09/13 02:21:42;;;;;;;9.32;6.43;;;20.30;67.70;;;;;;5051231;28;20114;-73
2022/09/13 02:24:11;;;;;;;7.68;6.00;;;20.30;67.70;;;;;;5051555;28;20060;-73
2022/09/13 02:26:38;;;;;;;6.40;5.65;;;20.30;67.70;;;;;;5051167;28;20691;-73
2022/09/13 02:29:07;;;;;;;8.10;5.63;;;20.30;67.70;;;;;;5034491;28;20638;-73
2022/09/13 02:31:36;;;;;;;9.30;6.05;;;20.30;67.70;;;;;;5052246;28;20060;-73
2022/09/13 02:34:04;;;;;;;7.18;5.65;;;20.30;67.70;;;;;;5052177;28;20051;-73
2022/09/13 02:36:34;;;;;;;7.32;5.65;;;20.30;67.70;;;;;;5051114;28;20080;-73
2022/09/13 02:39:03;;;;;;;7.63;5.82;;;20.30;67.70;;;;;;5050936;28;20064;-71
2022/09/13 02:41:34;;;;;;;7.93;5.57;;;20.30;67.70;;;;;;5067663;28;20143;-72
2022/09/13 02:44:04;;;;;;;7.57;5.90;;;20.30;67.70;;;;;;5051712;28;20182;-71
2022/09/13 02:46:41;;;;;;;9.60;5.80;;;20.30;67.70;;;;;;5051111;28;20053;-73
2022/09/13 02:49:12;;;;;;;6.38;5.28;;;20.30;67.70;;;;;;5051067;28;20394;-73
2022/09/13 02:51:44;;;;;;;7.13;5.60;;;20.30;67.70;;;;;;5050239;28;20441;-73
2022/09/13 02:54:15;;;;;;;8.68;5.93;;;20.30;67.70;;;;;;5050878;28;20405;-73
2022/09/13 02:56:47;;;;;;;7.70;5.68;;;20.30;67.70;;;;;;5050653;28;20052;-73
2022/09/13 02:59:15;;;;;;;7.50;5.55;;;20.30;67.70;;;;;;5050841;28;20084;-72
2022/09/13 03:01:41;;;;;;;7.05;5.55;;;20.30;67.70;;;;;;5049803;28;20049;-73
2022/09/13 03:04:08;;;;;;;7.80;5.35;;;20.30;67.70;;;;;;5050638;28;20063;-73
2022/09/13 03:06:35;;;;;;;7.65;5.40;;;20.30;68.20;;;;;;5050454;28;20063;-73
2022/09/13 03:09:04;;;;;;;7.15;5.50;;;20.30;67.70;;;;;;5050459;28;20052;-72
2022/09/13 03:11:36;;;;;;;7.03;5.47;;;20.30;67.70;;;;;;5050333;28;20052;-73
2022/09/13 03:14:14;;;;;;;7.43;5.57;;;20.30;67.70;;;;;;5067119;28;20394;-73
2022/09/13 03:16:46;;;;;;;7.13;5.13;;;20.30;67.60;;;;;;5050131;28;20061;-72
2022/09/13 03:19:23;;;;;;;7.75;5.72;;;20.30;67.70;;;;;;5050683;28;20057;-73
2022/09/13 03:22:04;;;;;;;6.88;5.25;;;20.30;68.10;;;;;;5050369;28;20053;-73
2022/09/13 03:24:36;;;;;;;6.85;5.28;;;20.30;67.60;;;;;;5050347;28;20482;-71
2022/09/13 03:27:09;;;;;;;6.07;4.93;;;20.30;67.60;;;;;;5054165;28;20064;-73
2022/09/13 03:29:40;;;;;;;7.63;5.40;;;20.30;67.70;;;;;;5071393;28;20059;-73
2022/09/13 03:32:13;;;;;;;6.72;5.38;;;20.30;67.70;;;;;;5054641;28;20065;-73
2022/09/13 03:34:43;;;;;;;6.13;5.03;;;20.30;67.70;;;;;;5054402;28;20064;-73
2022/09/13 03:37:12;;;;;;;7.22;5.25;;;20.30;67.70;;;;;;5054567;28;20061;-73
2022/09/13 03:39:43;;;;;;;6.80;5.18;;;20.30;67.70;;;;;;5054255;28;20061;-73
2022/09/13 03:42:12;;;;;;;5.80;4.78;;;20.30;67.70;;;;;;5054146;28;20114;-70
2022/09/13 03:44:39;;;;;;;6.28;5.10;;;20.30;67.70;;;;;;5054392;28;20059;-72
2022/09/13 03:47:06;;;;;;;6.65;4.97;;;20.30;67.70;;;;;;5055338;28;20051;-70
2022/09/13 03:49:32;;;;;;;6.88;5.57;;;20.30;67.70;;;;;;5055451;28;20060;-70
2022/09/13 03:51:59;;;;;;;6.78;5.40;;;20.30;67.70;;;;;;5054802;28;20049;-70
2022/09/13 03:54:28;;;;;;;6.32;4.88;;;20.60;67.80;;;;;;5053927;28;20107;-70
2022/09/13 03:57:19;;;;;;;6.07;5.35;;;20.30;67.70;;;;;;5054225;28;20060;-70
2022/09/13 03:59:48;;;;;;;6.20;4.90;;;20.30;67.50;;;;;;5053468;28;20045;-70
2022/09/13 04:02:15;;;;;;;6.30;4.90;;;20.30;67.70;;;;;;5054787;28;20048;-70
2022/09/13 04:04:42;;;;;;;5.82;4.82;;;20.30;67.70;;;;;;5055319;28;20053;-70
2022/09/13 04:07:13;;;;;;;7.45;5.15;;;20.30;67.70;;;;;;5054946;28;20057;-70
2022/09/13 04:09:39;;;;;;;6.90;4.93;;;20.30;67.70;;;;;;5053892;28;20067;-70
2022/09/13 04:12:07;;;;;;;6.43;4.60;;;20.20;67.60;;;;;;5053680;28;20430;-70
2022/09/13 04:14:35;;;;;;;7.10;4.78;;;20.30;67.70;;;;;;5054846;28;20072;-70
2022/09/13 04:17:02;;;;;;;6.65;4.93;;;20.30;67.70;;;;;;5054719;28;20055;-73
2022/09/13 04:19:28;;;;;;;5.55;4.47;;;20.30;67.70;;;;;;5054974;28;20509;-73
2022/09/13 04:21:55;;;;;;;6.85;5.07;;;20.20;67.60;;;;;;5053285;28;20079;-73
2022/09/13 04:24:24;;;;;;;6.97;5.07;;;20.20;67.60;;;;;;5053554;28;20398;-72
2022/09/13 04:26:52;;;;;;;6.15;4.75;;;20.30;67.70;;;;;;5053500;28;20080;-73
2022/09/13 04:29:19;;;;;;;4.88;4.28;;;20.20;67.60;;;;;;5053521;28;20413;-73
2022/09/13 04:31:48;;;;;;;5.97;4.88;;;20.20;67.60;;;;;;5053291;28;20060;-73
2022/09/13 04:34:16;;;;;;;5.55;4.28;;;20.20;67.60;;;;;;5054508;28;20045;-73
2022/09/13 04:36:42;;;;;;;6.13;5.03;;;20.20;67.60;;;;;;5053058;28;20497;-72
2022/09/13 04:39:09;;;;;;;7.38;5.22;;;20.20;67.70;;;;;;5052967;28;20061;-73
2022/09/13 04:41:36;;;;;;;6.75;4.68;;;20.20;67.60;;;;;;5054284;28;20049;-73
2022/09/13 04:44:03;;;;;;;6.22;4.57;;;20.20;67.60;;;;;;5052743;28;20067;-73
2022/09/13 04:46:29;;;;;;;6.10;4.50;;;20.20;67.60;;;;;;5053309;28;20067;-73
2022/09/13 04:48:58;;;;;;;5.63;4.57;;;20.20;67.60;;;;;;5053227;28;20064;-70
2022/09/13 04:51:24;;;;;;;6.18;4.68;;;20.20;67.60;;;;;;5052436;28;20063;-70
2022/09/13 04:53:55;;;;;;;5.20;4.32;;;20.20;67.60;;;;;;5052853;28;20065;-70
2022/09/13 04:56:23;;;;;;;5.95;4.50;;;20.20;67.60;;;;;;5053038;28;20139;-69
2022/09/13 04:58:50;;;;;;;5.80;4.80;;;20.20;67.60;;;;;;5052776;28;20057;-70
2022/09/13 05:01:17;;;;;;;6.32;4.45;;;20.20;67.60;;;;;;5052700;28;20053;-71
2022/09/13 05:03:44;;;;;;;5.65;4.32;;;20.20;67.60;;;;;;5053041;28;20103;-70
2022/09/13 05:06:13;;;;;;;8.65;5.00;;;20.20;67.70;;;;;;5052456;28;20453;-70
2022/09/13 05:08:40;;;;;;;6.00;4.60;;;20.20;67.70;;;;;;5052773;28;20063;-70
2022/09/13 05:11:07;;;;;;;5.35;4.57;;;20.20;67.70;;;;;;5052550;28;20064;-70
2022/09/13 05:13:34;;;;;;;7.47;5.00;;;20.20;67.70;;;;;;5052784;28;20091;-70
2022/09/13 05:16:03;;;;;;;5.45;4.60;;;20.20;67.70;;;;;;5053773;28;20413;-69
2022/09/13 05:18:30;;;;;;;6.38;4.70;;;20.20;67.70;;;;;;5052665;28;20052;-70
2022/09/13 05:20:57;;;;;;;5.50;4.45;;;20.20;67.70;;;;;;5052103;28;20140;-69
2022/09/13 05:23:26;;;;;;;5.70;4.40;;;20.20;67.70;;;;;;5052148;28;20052;-70
2022/09/13 05:25:53;;;;;;;5.65;4.47;;;20.20;67.70;;;;;;5052222;28;20055;-70
2022/09/13 05:28:20;;;;;;;5.75;3.95;;;20.20;67.60;;;;;;5052515;28;20052;-70
2022/09/13 05:30:54;;;;;;;5.15;4.40;;;20.20;67.70;;;;;;5052047;28;20057;-70
2022/09/13 05:33:21;;;;;;;6.10;4.50;;;20.20;67.60;;;;;;5052587;28;20132;-70
2022/09/13 05:35:48;;;;;;;5.32;4.47;;;20.20;67.70;;;;;;5052674;28;20424;-70
2022/09/13 05:38:15;;;;;;;5.68;4.60;;;20.20;67.70;;;;;;5052341;28;20057;-70
2022/09/13 05:40:43;;;;;;;6.40;4.40;;;20.20;67.60;;;;;;5051750;28;20052;-70
2022/09/13 05:43:10;;;;;;;5.95;4.63;;;20.20;67.70;;;;;;5051771;28;20063;-70
2022/09/13 05:45:36;;;;;;;4.68;3.92;;;20.20;67.60;;;;;;5035359;28;20048;-71
2022/09/13 05:48:03;;;;;;;4.75;4.18;;;20.20;67.60;;;;;;5052355;28;20056;-70
2022/09/13 05:50:30;;;;;;;6.15;4.78;;;20.20;67.70;;;;;;5067829;28;20110;-70
2022/09/13 05:52:57;;;;;;;5.88;4.30;;;20.20;67.80;;;;;;5051940;28;20413;-71
2022/09/13 05:55:24;;;;;;;4.47;3.80;;;20.20;67.70;;;;;;5051547;28;20055;-70
2022/09/13 05:57:52;;;;;;;4.47;3.88;;;20.20;67.70;;;;;;5051598;28;20053;-70
2022/09/13 06:00:18;;;;;;;5.28;4.10;;;20.20;67.70;;;;;;5052404;28;20053;-70
2022/09/13 06:02:46;;;;;;;5.40;4.30;;;20.20;67.70;;;;;;5051589;28;20063;-70
2022/09/13 06:05:13;;;;;;;4.40;3.80;;;20.20;67.70;;;;;;5051453;28;20064;-73
2022/09/13 06:07:41;;;;;;;4.68;4.18;;;20.20;67.70;;;;;;5051698;28;20057;-73
2022/09/13 06:10:08;;;;;;;4.85;3.80;;;20.20;67.70;;;;;;5051440;28;20080;-73
2022/09/13 06:12:35;;;;;;;4.78;3.88;;;20.20;67.70;;;;;;5052587;28;20049;-73
2022/09/13 06:15:03;;;;;;;5.32;3.95;;;20.20;67.70;;;;;;5051373;28;20052;-73
2022/09/13 06:17:30;;;;;;;5.18;3.75;;;20.20;67.70;;;;;;5068234;28;20079;-73
2022/09/13 06:19:57;;;;;;;4.15;3.50;;;20.20;67.70;;;;;;5050807;28;20128;-73
2022/09/13 06:22:23;;;;;;;5.15;4.05;;;20.20;67.70;;;;;;5051516;28;20049;-72
2022/09/13 06:24:51;;;;;;;5.13;3.88;;;20.20;67.70;;;;;;5051161;28;20082;-73
2022/09/13 06:27:17;;;;;;;5.00;3.80;;;20.20;67.70;;;;;;5051233;28;20057;-73
2022/09/13 06:29:44;;;;;;;4.07;3.40;;;20.20;67.70;;;;;;5051330;28;20386;-70
2022/09/13 06:32:12;;;;;;;5.68;3.30;;;20.20;67.70;;;;;;5050808;28;20052;-73
2022/09/13 06:34:39;;;;;;;4.68;3.50;;;20.20;67.70;;;;;;5051068;28;20052;-73
2022/09/13 06:37:05;;;;;;;4.45;3.28;;;20.20;67.70;;;;;;5051123;28;20482;-73
2022/09/13 06:39:33;;;;;;;4.28;3.30;;;20.20;67.70;;;;;;5050870;28;20049;-73
2022/09/13 06:41:59;;;;;;;4.45;3.45;;;20.20;67.60;;;;;;5051079;28;20502;-73
2022/09/13 06:44:26;;;;;;;4.07;3.30;;;20.20;67.70;;;;;;5051333;28;20053;-72
2022/09/13 06:46:53;;;;;;;3.50;3.15;;;20.20;67.70;;;;;;5051055;28;20067;-73
2022/09/13 06:49:21;;;;;;;3.72;3.28;;;20.20;67.70;;;;;;5050842;28;20079;-73
2022/09/13 06:51:47;;;;;;;4.05;3.08;;;20.10;67.70;;;;;;5050665;28;20063;-73
2022/09/13 06:54:14;;;;;;;3.83;3.17;;;20.20;67.80;;;;;;5051116;28;20053;-74
2022/09/13 06:56:41;;;;;;;5.07;3.47;;;20.20;67.80;;;;;;5050818;28;20053;-73
2022/09/13 06:59:09;;;;;;;4.03;3.03;;;20.20;67.80;;;;;;5051008;28;20061;-74
2022/09/13 07:01:37;;;;;;;3.13;2.83;;;20.20;67.80;;;;;;5050029;28;20063;-73
2022/09/13 07:04:04;;;;;;;3.55;2.85;;;20.20;67.70;;;;;;5050099;28;20395;-73
2022/09/13 07:06:33;;;;;;;3.85;3.05;;;20.20;67.70;;;;;;5050611;28;20504;-71
2022/09/13 07:09:01;;;;;;;3.30;2.90;;;20.20;67.70;;;;;;5050859;28;20508;-69
2022/09/13 07:11:31;;;;;;;3.47;2.72;;;20.20;67.70;;;;;;5050695;28;20088;-69
2022/09/13 07:13:58;;;;;;;3.85;2.95;;;20.20;67.70;;;;;;5050753;28;20052;-69
2022/09/13 07:16:27;;;;;;;4.10;3.13;;;20.20;67.60;;;;;;5050550;28;20379;-73
2022/09/13 07:18:54;;;;;;;5.03;2.97;;;20.20;67.70;;;;;;5051289;28;20413;-73
2022/09/13 07:21:21;;;;;;;4.28;2.90;;;20.20;67.80;;;;;;5050110;28;20143;-73
2022/09/13 07:23:49;;;;;;;4.07;3.00;;;20.20;67.80;;;;;;5050519;28;20064;-73
2022/09/13 07:26:16;;;;;;;5.00;3.08;;;20.20;67.80;;;;;;5051586;28;20129;-72
2022/09/13 07:28:44;;;;;;;4.15;2.80;;;20.20;67.80;;;;;;5050116;28;20052;-70
2022/09/13 07:31:12;;;;;;;3.40;2.80;;;20.30;67.90;;;;;;5049784;28;20053;-70
2022/09/13 07:33:38;;;;;;;4.07;2.70;;;20.20;67.80;;;;;;5050247;28;20056;-70
2022/09/13 07:36:06;;;;;;;3.17;2.53;;;20.30;67.90;;;;;;5049613;28;20049;-70
2022/09/13 07:38:34;;;;;;;4.13;2.63;;;20.30;67.90;;;;;;5047867;28;20041;-70
2022/09/13 07:41:05;;;;;;;3.75;2.60;;;20.30;67.90;;;;;;5047121;28;20144;-70
2022/09/13 07:43:32;;;;;;;4.57;2.83;;;20.20;67.90;;;;;;5048939;28;20401;-70
2022/09/13 07:45:59;;;;;;;2.97;2.47;;;20.30;67.90;;;;;;5050849;28;20090;-70
2022/09/13 07:48:26;;;;;;;3.22;2.38;;;20.30;67.90;;;;;;5050139;28;20511;-70
2022/09/13 07:50:58;;;;;;;3.45;2.70;;;20.30;67.90;;;;;;5051228;28;20071;-70
2022/09/13 07:53:25;;;;;;;3.22;2.42;;;20.30;67.90;;;;;;5051180;28;20048;-70
2022/09/13 07:55:51;;;;;;;2.90;2.20;;;20.30;67.90;;;;;;5051490;28;20045;-70
2022/09/13 07:58:20;;;;;;;4.53;2.40;;;20.30;67.90;;;;;;5051285;28;20048;-70
2022/09/13 08:00:46;;;;;;;2.90;2.20;;;20.30;67.90;;;;;;5050077;28;20061;-70
2022/09/13 08:03:13;;;;;;;3.33;2.50;;;20.40;67.90;;;;;;5049839;28;20053;-70
2022/09/13 08:05:40;;;;;;;2.95;2.20;;;20.40;67.90;;;;;;5066556;28;20410;-74
2022/09/13 08:08:07;;;;;;;3.08;2.38;;;20.40;67.90;;;;;;5050018;28;20059;-70
2022/09/13 08:10:33;;;;;;;2.53;2.25;;;20.40;67.90;;;;;;5050044;28;20064;-73
2022/09/13 08:13:00;;;;;;;3.42;2.25;;;20.40;67.90;;;;;;5051957;28;20549;-73
2022/09/13 08:15:28;;;;;;;3.85;2.30;;;20.40;68.00;;;;;;5053318;28;20049;-72
2022/09/13 08:17:55;;;;;;;3.60;2.38;;;20.40;68.00;;;;;;5053555;28;20049;-72
2022/09/13 08:20:21;;;;;;;3.85;2.35;;;20.40;68.00;;;;;;5053756;28;20409;-73
2022/09/13 08:22:48;;;;;;;2.80;2.10;;;20.50;68.00;;;;;;5054963;28;20132;-70
2022/09/13 08:25:15;;;;;;;3.65;2.20;;;20.50;67.90;;;;;;5054971;28;20429;-73
2022/09/13 08:27:42;;;;;;;4.00;2.05;;;20.50;67.90;;;;;;5054742;28;20045;-71
2022/09/13 08:30:09;;;;;;;3.75;2.05;;;20.50;67.90;;;;;;5054439;28;20132;-71
2022/09/13 08:32:38;;;;;;;4.03;2.38;;;20.50;67.90;;;;;;5052605;28;20041;-70
2022/09/13 08:35:05;;;;;;;3.13;1.80;;;20.60;68.00;;;;;;5053462;28;20166;-70
2022/09/13 08:37:33;;;;;;;3.55;2.15;;;20.60;68.00;;;;;;5051361;28;20056;-72
2022/09/13 08:40:00;;;;;;;3.30;2.10;;;20.60;67.90;;;;;;5052869;28;20060;-71
2022/09/13 08:42:32;;;;;;;4.13;2.10;;;20.60;67.90;;;;;;5054066;28;20049;-70
2022/09/13 08:44:59;;;;;;;6.45;2.15;;;20.60;67.90;;;;;;5069655;28;20053;-70
2022/09/13 08:47:34;;;;;;;3.42;2.25;;;20.60;67.80;;;;;;5052695;28;20713;-70
2022/09/13 08:50:06;;;;;;;4.45;2.10;;;20.60;67.80;;;;;;5049828;28;20064;-70
2022/09/13 08:52:34;;;;;;;3.58;2.03;;;20.60;67.80;;;;;;5050477;28;20132;-73
2022/09/13 08:55:03;;;;;;;3.45;2.10;;;20.60;67.80;;;;;;5052225;28;20478;-73
2022/09/13 08:57:32;;;;;;;2.95;1.92;;;20.60;67.70;;;;;;5053622;28;20045;-71
2022/09/13 09:00:02;;;;;;;3.95;2.03;;;20.60;67.60;;;;;;5052167;28;20060;-73
2022/09/13 09:02:43;;;;;;;2.92;1.85;;;20.70;67.70;;;;;;5052640;28;20102;-73
2022/09/13 09:05:14;;;;;;;2.60;1.83;;;20.70;67.60;;;;;;5050514;28;20052;-72
2022/09/13 09:07:43;;;;;;;4.82;2.05;;;20.70;67.60;;;;;;5051597;28;20060;-73
2022/09/13 09:10:14;;;;;;;3.72;2.10;;;20.60;67.50;;;;;;5052907;28;20051;-74
2022/09/13 09:12:42;;;;;;;2.60;1.80;;;20.70;67.50;;;;;;5053865;28;20045;-74
2022/09/13 09:15:14;;;;;;;3.42;1.90;;;20.70;67.50;;;;;;5052812;28;20048;-71
2022/09/13 09:17:46;;;;;;;2.78;1.95;;;20.70;67.50;;;;;;5052371;28;20463;-71
2022/09/13 09:20:22;;;;;;;2.75;1.65;;;20.70;67.50;;;;;;5052689;28;20052;-70
2022/09/13 09:22:49;;;;;;;3.25;1.83;;;20.70;67.40;;;;;;5053451;28;20053;-74
2022/09/13 09:25:16;;;;;;;6.78;2.08;;;20.70;67.40;;;;;;5052388;28;20406;-74
2022/09/13 09:27:43;;;;;;;4.05;2.00;;;20.70;67.40;;;;;;5051561;28;20528;-72
2022/09/13 09:30:13;;;;;;;7.38;1.90;;;20.70;67.40;;;;;;5052133;28;20053;-74
2022/09/13 09:32:49;;;;;;;4.97;1.65;;;20.80;67.50;;;;;;5053711;28;20107;-70
2022/09/13 09:35:21;;;;;;;6.55;1.75;;;20.80;67.60;;;;;;5053293;28;20071;-70
2022/09/13 09:37:54;;;;;;;6.78;1.98;;;20.80;67.60;;;;;;5053124;28;20484;-72
2022/09/13 09:40:21;;;;;;;3.10;1.67;;;20.80;67.50;;;;;;5051874;28;20056;-72
2022/09/13 09:42:49;;;;;;;8.23;2.00;;;20.80;67.20;;;;;;5052080;28;20486;-72
2022/09/13 09:45:24;;;;;;;8.50;1.80;;;20.80;67.20;;;;;;5051767;28;20637;-72
2022/09/13 09:47:51;;;;;;;6.50;2.03;;;20.90;67.20;;;;;;5051632;28;20084;-72
2022/09/13 09:50:21;;;;;;;4.43;2.15;;;20.80;67.30;;;;;;5052853;28;20098;-72
2022/09/13 09:52:52;;;;;;;7.93;2.00;;;20.90;67.30;;;;;;5052112;28;20094;-72
2022/09/13 09:55:23;;;;;;;5.32;1.80;;;20.90;67.30;;;;;;5052479;28;20048;-72
2022/09/13 09:57:52;;;;;;;5.03;2.08;;;20.90;67.30;;;;;;5052488;28;20489;-72
2022/09/13 10:00:19;;;;;;;5.88;1.63;;;20.90;67.40;;;;;;5052001;28;20148;-72
2022/09/13 10:02:46;;;;;;;8.52;2.15;;;20.90;67.40;;;;;;5052849;28;20508;-73
2022/09/13 10:05:13;;;;;;;4.07;1.60;;;20.90;67.70;;;;;;5053099;28;20053;-72
2022/09/13 10:07:41;;;;;;;5.78;1.75;;;20.90;67.40;;;;;;5052650;28;20111;-73
2022/09/13 10:10:19;;;;;;;8.00;1.88;;;21.00;67.50;;;;;;5052665;28;20148;-72
2022/09/13 10:12:47;;;;;;;6.28;2.15;;;21.00;67.60;;;;;;5052400;28;20049;-73
2022/09/13 10:15:16;;;;;;;6.57;1.80;;;21.00;67.40;;;;;;5051703;28;20075;-74
2022/09/13 10:17:43;;;;;;;7.63;1.83;;;21.00;67.40;;;;;;5051245;28;20402;-74
2022/09/13 10:20:20;;;;;;;2.95;1.55;;;21.00;67.40;;;;;;5051078;28;20481;-75
2022/09/13 10:23:09;;;;;;;3.92;1.85;;;21.00;67.30;;;;;;5051556;28;20066;-74
2022/09/13 10:25:37;;;;;;;4.82;1.60;;;21.00;67.10;;;;;;5051388;28;20061;-73
2022/09/13 10:28:04;;;;;;;6.03;1.77;;;21.00;67.10;;;;;;5051178;28;20045;-72
2022/09/13 10:30:32;;;;;;;4.18;1.60;;;21.00;67.20;;;;;;5050525;28;20057;-72
2022/09/13 10:32:59;;;;;;;4.55;1.50;;;21.10;67.10;;;;;;5051339;28;20554;-73
2022/09/13 10:35:26;;;;;;;5.35;1.50;;;21.10;67.00;;;;;;5050120;28;20053;-76
2022/09/13 10:37:54;;;;;;;2.90;1.30;;;21.10;67.10;;;;;;5053009;28;20048;-76
2022/09/13 10:40:25;;;;;;;4.13;1.50;;;21.10;67.10;;;;;;5052342;28;20067;-74
2022/09/13 10:42:53;;;;;;;4.15;1.52;;;21.10;67.00;;;;;;5050289;28;20049;-75
2022/09/13 10:45:22;;;;;;;4.00;1.60;;;21.20;66.90;;;;;;5050446;28;20049;-75
2022/09/13 10:47:49;;;;;;;3.72;1.60;;;21.20;66.80;;;;;;5051016;28;20053;-75
2022/09/13 10:50:20;;;;;;;3.17;1.40;;;21.20;66.70;;;;;;5050613;28;20198;-72
2022/09/13 10:52:47;;;;;;;4.75;1.40;;;21.30;66.70;;;;;;5066778;28;20140;-72
2022/09/13 10:55:31;;;;;;;4.10;1.58;;;21.30;66.60;;;;;;5050136;28;20061;-73
2022/09/13 10:58:17;;;;;;;6.10;1.67;;;21.40;66.50;;;;;;5047056;28;20379;-75
2022/09/13 11:01:06;;;;;;;2.72;1.52;;;21.40;66.50;;;;;;5047770;28;20049;-75
2022/09/13 11:03:41;;;;;;;3.55;1.40;;;21.40;66.30;;;;;;5034276;28;20379;-75
2022/09/13 11:06:11;;;;;;;3.00;1.50;;;21.40;66.20;;;;;;5051862;28;20131;-75
2022/09/13 11:08:42;;;;;;;2.35;1.50;;;21.40;66.10;;;;;;5050168;28;20135;-72
2022/09/13 11:11:15;;;;;;;3.42;1.40;;;21.50;66.10;;;;;;5051644;28;20071;-72
2022/09/13 11:13:51;;;;;;;2.78;1.63;;;21.50;66.00;;;;;;5050645;28;20057;-72
2022/09/13 11:16:34;;;;;;;2.42;1.25;;;21.50;65.90;;;;;;5050660;28;20045;-73
2022/09/13 11:19:07;;;;;;;2.97;1.48;;;21.60;65.80;;;;;;5051495;28;20059;-72
2022/09/13 11:21:43;;;;;;;2.60;1.40;;;21.60;65.80;;;;;;5050325;28;20061;-73
2022/09/13 11:24:22;;;;;;;3.50;1.23;;;21.60;66.30;;;;;;5050602;28;20056;-73
2022/09/13 11:26:56;;;;;;;2.67;1.30;;;21.60;65.80;;;;;;5050032;28;20124;-73
2022/09/13 11:29:37;;;;;;;2.53;1.17;;;21.70;65.70;;;;;;5050407;28;20067;-73
2022/09/13 11:32:13;;;;;;;3.50;1.40;;;21.70;65.50;;;;;;5050058;28;20057;-73
2022/09/13 11:34:44;;;;;;;3.88;1.40;;;21.70;65.50;;;;;;5050366;28;20059;-73
2022/09/13 11:37:22;;;;;;;2.30;1.10;;;21.70;65.50;;;;;;5049782;28;20482;-71
2022/09/13 11:39:52;;;;;;;3.72;1.20;;;21.70;65.40;;;;;;5047943;28;20059;-74
2022/09/13 11:42:26;;;;;;;2.63;1.27;;;21.70;65.40;;;;;;5050426;28;20068;-74
2022/09/13 11:45:18;;;;;;;5.57;1.30;;;21.70;65.30;;;;;;5051467;28;20417;-75
2022/09/13 11:47:50;;;;;;;6.70;1.20;;;21.70;65.20;;;;;;5053082;28;20045;-75
2022/09/13 11:50:27;;;;;;;2.50;1.10;;;21.70;65.20;;;;;;5049915;28;20496;-76
2022/09/13 11:53:01;;;;;;;6.28;1.40;;;21.80;65.20;;;;;;5053898;28;20486;-76
2022/09/13 11:55:30;;;;;;;4.85;1.10;;;21.80;64.90;;;;;;5054210;28;20059;-75
2022/09/13 11:57:59;;;;;;;6.90;1.40;;;21.80;64.90;;;;;;5054057;28;20140;-71
2022/09/13 12:00:29;;;;;;;2.95;1.20;;;21.80;64.90;;;;;;5054874;28;20128;-72
2022/09/13 12:03:00;;;;;;;3.65;1.48;;;21.80;65.00;;;;;;5055228;28;20052;-72
2022/09/13 12:05:28;;;;;;;1.77;1.10;;;21.80;65.00;;;;;;5053871;28;20064;-72
2022/09/13 12:07:56;;;;;;;5.03;1.27;;;21.80;65.00;;;;;;5055082;28;20052;-72
2022/09/13 12:10:25;;;;;;;2.20;1.10;;;21.90;64.90;;;;;;5054905;28;20059;-72
2022/09/13 12:12:51;;;;;;;2.83;1.13;;;21.90;64.90;;;;;;5054894;28;20510;-74
2022/09/13 12:15:32;;;;;;;2.63;1.13;;;21.90;64.90;;;;;;5053387;28;20055;-73
2022/09/13 12:18:00;;;;;;;4.10;1.10;;;21.90;64.80;;;;;;5053413;28;20048;-73
2022/09/13 12:20:30;;;;;;;2.42;1.05;;;21.90;64.90;;;;;;5053380;28;20048;-72
2022/09/13 12:23:00;;;;;;;4.63;1.20;;;21.90;64.90;;;;;;5053951;28;20405;-73
2022/09/13 12:25:32;;;;;;;1.35;0.90;;;21.90;64.90;;;;;;5053713;28;20071;-73
2022/09/13 12:28:04;;;;;;;3.08;1.20;;;21.90;64.90;;;;;;5054467;28;20049;-73
2022/09/13 12:30:37;;;;;;;1.60;1.10;;;21.90;64.90;;;;;;5053484;28;20053;-74
2022/09/13 12:33:05;;;;;;;2.70;1.00;;;21.90;64.90;;;;;;5054723;28;20045;-73
2022/09/13 12:35:34;;;;;;;2.85;1.10;;;21.90;64.90;;;;;;5054575;28;20413;-74
2022/09/13 12:38:13;;;;;;;2.00;1.20;;;21.90;64.90;;;;;;5053292;28;20068;-74
2022/09/13 12:40:55;;;;;;;3.10;1.17;;;21.90;64.90;;;;;;5053080;28;20065;-73
2022/09/13 12:43:32;;;;;;;4.60;1.17;;;21.90;64.90;;;;;;5053518;28;20074;-73
2022/09/13 12:46:17;;;;;;;2.72;1.30;;;21.90;64.90;;;;;;5053234;28;20099;-73
2022/09/13 12:48:48;;;;;;;;;;;21.90;64.90;;;;;;5054838;28;20049;-74
2022/09/13 12:51:20;;;;;;;1.67;1.02;;;21.90;65.10;;;;;;5053102;28;19999;-73
2022/09/13 12:54:04;;;;;;;2.80;1.10;;;21.80;65.10;;;;;;5053279;28;20060;-74
2022/09/13 12:56:49;;;;;;;1.35;0.80;;;21.90;65.00;;;;;;5052995;28;20398;-74
2022/09/13 12:59:34;;;;;;;3.20;0.95;;;21.90;65.00;;;;;;5051246;28;20056;-73